Prentiss Township, Maine
Current Conditions -  °F | °C
As of 9:53 PM on Monday 26 Jan 2015 (Local Time) from KMLT Reporting Station
Clear Clear  
Wind Chill: -4°   Ceiling: Unl
Heat Index:   Visibility: 10mi
Dew Point: -8°   Wind: 6mph
Humidity: 53%   Direction: 50°NE
Pressure: 30.28"   Gusts: NA
Location:  45.3189°N, 68.0613°W
Report Text: KMLT 270253Z AUTO 05005KT 10SM CLR M14/M22 A3028 RMK AO2 SLP271 T11441222 50009
Loading
Personal Weather Stations






























Interactive Weather Map New forecast layout! Learn more

10-Day Weather Forecast

Advertisements
Track Severe Weather on mobile